Time;durP1;ratioP1;P1;durP2;ratioP2;P2;SDS_P1;SDS_P2;PMS_P1;PMS_P2;Temp;Humidity;BMP_temperature;BMP_pressure;BME280_temperature;BME280_humidity;BME280_pressure;Samples;Min_cycle;Max_cycle;Signal;HPM_P1;HPM_P2
2022/08/09 00:00:19;;;;;;;4.32;1.40;;;;;;;19.11;100.00;99781.78;4385143;32;20513;-74
2022/08/09 00:03:04;;;;;;;3.30;1.77;;;;;;;18.80;100.00;99782.84;4385854;32;20027;-70
2022/08/09 00:05:31;;;;;;;4.80;1.55;;;;;;;18.95;100.00;99775.66;4385763;32;20052;-71
2022/08/09 00:07:57;;;;;;;3.62;1.50;;;;;;;19.02;100.00;99770.69;4385972;32;20436;-70
2022/08/09 00:10:24;;;;;;;2.95;1.50;;;;;;;18.76;100.00;99748.22;4384579;32;20068;-71
2022/08/09 00:12:50;;;;;;;7.47;1.70;;;;;;;18.87;100.00;99717.88;4394518;32;20052;-71
2022/08/09 00:15:17;;;;;;;3.78;1.30;;;;;;;18.98;100.00;99734.13;4415774;32;20091;-71
2022/08/09 00:17:43;;;;;;;3.40;1.50;;;;;;;18.90;100.00;99737.50;4415935;32;20049;-70
2022/08/09 00:20:10;;;;;;;4.47;1.42;;;;;;;19.29;100.00;99772.87;4415913;32;20022;-70
2022/08/09 00:22:36;;;;;;;5.37;1.30;;;;;;;19.06;100.00;99734.31;4415200;32;20072;-71
2022/08/09 00:25:03;;;;;;;4.57;1.42;;;;;;;19.30;100.00;99779.94;4414688;32;20341;-70
2022/08/09 00:27:29;;;;;;;2.55;1.48;;;;;;;19.28;100.00;99733.00;4432250;32;20047;-70
2022/08/09 00:29:56;;;;;;;3.28;1.30;;;;;;;19.21;100.00;99743.44;4433487;32;20052;-71
2022/08/09 00:32:22;;;;;;;2.95;1.48;;;;;;;19.53;100.00;99761.94;4433397;32;20030;-71
2022/08/09 00:34:48;;;;;;;4.30;1.30;;;;;;;19.57;100.00;99782.09;4432560;32;20104;-73
2022/08/09 00:37:15;;;;;;;7.95;1.40;;;;;;;19.70;100.00;99782.50;4432419;32;20042;-71
2022/08/09 00:39:41;;;;;;;3.70;1.40;;;;;;;19.46;100.00;99736.88;4433274;32;20037;-70
2022/08/09 00:42:07;;;;;;;2.28;1.83;;;;;;;19.86;100.00;99773.00;4433528;32;20067;-70
2022/08/09 00:44:34;;;;;;;1.58;1.30;;;;;;;19.57;100.00;99745.78;4432985;32;20349;-70
2022/08/09 00:47:00;;;;;;;2.58;1.52;;;;;;;19.58;100.00;99740.00;4431538;32;20056;-70
2022/08/09 00:49:26;;;;;;;2.90;1.55;;;;;;;19.47;100.00;99719.41;4433023;32;20068;-70
2022/08/09 00:51:55;;;;;;;13.05;1.33;;;;;;;19.67;100.00;99777.59;4439060;32;20053;-69
2022/08/09 00:54:23;;;;;;;2.45;1.60;;;;;;;19.80;100.00;99776.94;4447355;32;20056;-70
2022/08/09 00:56:49;;;;;;;1.92;1.20;;;;;;;19.41;100.00;99764.25;4448462;32;20450;-70
2022/08/09 00:59:16;;;;;;;4.65;1.77;;;;;;;19.50;100.00;99740.66;4446359;32;20030;-70
2022/08/09 01:01:43;;;;;;;6.25;1.15;;;;;;;19.51;100.00;99731.34;4448582;32;20469;-71
2022/08/09 01:04:24;;;;;;;3.97;1.62;;;;;;;19.40;100.00;99773.53;4448641;32;20417;-71
2022/08/09 01:07:18;;;;;;;4.47;1.37;;;;;;;19.40;100.00;99727.94;4446614;32;20045;-74
2022/08/09 01:09:55;;;;;;;6.72;2.67;;;;;;;19.45;100.00;99743.47;4448746;32;20056;-71
2022/08/09 01:12:43;;;;;;;7.37;2.03;;;;;;;19.63;100.00;99771.13;4448904;32;20030;-73
2022/08/09 01:15:15;;;;;;;2.90;1.30;;;;;;;19.65;100.00;99779.81;4451194;32;20030;-71
2022/08/09 01:18:00;;;;;;;2.83;1.15;;;;;;;19.80;100.00;99779.69;4451803;32;20067;-71
2022/08/09 01:20:51;;;;;;;5.55;1.50;;;;;;;19.82;100.00;99774.72;4418699;32;20086;-71
2022/08/09 01:23:39;;;;;;;1.77;1.40;;;;;;;19.86;100.00;99785.88;4418313;32;20369;-70
2022/08/09 01:26:17;;;;;;;10.55;1.40;;;;;;;19.68;100.00;99747.25;4418611;32;20035;-70
2022/08/09 01:28:49;;;;;;;6.68;1.40;;;;;;;20.05;100.00;99794.09;4418377;32;20067;-71
2022/08/09 01:31:19;;;;;;;2.93;1.50;;;;;;;20.01;100.00;99782.94;4416519;32;20034;-73
2022/08/09 01:33:47;;;;;;;1.83;1.27;;;;;;;19.91;100.00;99783.91;4418396;32;20178;-70
2022/08/09 01:36:18;;;;;;;1.58;1.48;;;;;;;19.90;100.00;99776.78;4417089;32;20060;-71
2022/08/09 01:38:46;;;;;;;3.42;1.42;;;;;;;19.98;100.00;99785.47;4418154;32;20076;-70
2022/08/09 01:41:40;;;;;;;2.55;1.45;;;;;;;19.53;100.00;99747.44;4416644;32;20067;-70
2022/08/09 01:44:08;;;;;;;11.27;1.40;;;;;;;19.50;100.00;99757.06;4418334;32;20044;-70
2022/08/09 01:46:38;;;;;;;1.58;1.48;;;;;;;19.57;100.00;99787.53;4418211;32;20054;-70
2022/08/09 01:49:08;;;;;;;14.90;2.75;;;;;;;19.37;100.00;99774.13;4417349;32;20411;-71
2022/08/09 01:51:36;;;;;;;2.70;1.52;;;;;;;18.82;100.00;99726.06;4425937;32;20382;-71
2022/08/09 01:54:04;;;;;;;7.65;1.58;;;;;;;19.18;100.00;99788.53;4433531;32;20046;-71
2022/08/09 01:56:32;;;;;;;2.58;1.50;;;;;;;19.13;100.00;99785.03;4384967;32;20413;-71
2022/08/09 01:59:02;;;;;;;3.42;2.00;;;;;;;19.08;100.00;99772.22;4387919;32;20052;-70
2022/08/09 02:01:32;;;;;;;6.90;1.50;;;;;;;19.06;100.00;99791.62;4387938;32;20395;-70
2022/08/09 02:04:00;;;;;;;2.45;1.30;;;;;;;18.83;100.00;99744.06;4385319;32;20105;-73
2022/08/09 02:09:15;;;;;;;2.87;1.37;;;;;;;19.24;100.00;99792.84;4403083;32;20046;-70
2022/08/09 02:11:41;;;;;;;2.28;1.35;;;;;;;19.37;100.00;99793.22;4401889;32;20031;-70
2022/08/09 02:14:09;;;;;;;5.25;1.40;;;;;;;19.49;100.00;99793.66;4400263;32;20057;-70
2022/08/09 02:16:38;;;;;;;1.60;1.25;;;;;;;19.23;100.00;99780.28;4400837;32;20042;-70
2022/08/09 02:19:05;;;;;;;2.85;1.62;;;;;;;19.40;100.00;99790.75;4402534;32;20446;-69
2022/08/09 02:21:38;;;;;;;1.85;1.40;;;;;;;19.39;100.00;99799.25;4402466;32;20027;-70
2022/08/09 02:24:09;;;;;;;3.17;1.10;;;;;;;19.08;100.00;99753.12;4400379;32;20434;-70
2022/08/09 02:26:38;;;;;;;4.57;1.27;;;;;;;19.48;100.00;99800.22;4405299;32;20057;-71
2022/08/09 02:29:26;;;;;;;5.12;2.17;;;;;;;18.96;100.00;99719.97;4433052;32;20055;-70
2022/08/09 02:31:58;;;;;;;2.70;1.62;;;;;;;19.17;100.00;99758.78;4430871;32;20046;-71
2022/08/09 02:34:30;;;;;;;3.78;1.75;;;;;;;19.18;100.00;99761.22;4437122;32;20408;-70
2022/08/09 02:36:59;;;;;;;1.23;1.02;;;;;;;19.39;100.00;99793.78;4449874;32;20046;-70
2022/08/09 02:39:33;;;;;;;2.72;1.58;;;;;;;19.33;100.00;99787.53;4446693;32;20067;-70
2022/08/09 02:42:03;;;;;;;7.43;1.25;;;;;;;19.35;100.00;99793.56;4450198;32;20045;-70
2022/08/09 02:44:45;;;;;;;3.55;1.35;;;;;;;19.20;100.00;99761.75;4450154;32;20059;-70
2022/08/09 02:47:13;;;;;;;4.25;1.37;;;;;;;19.06;100.00;99736.25;4448556;32;20042;-70
2022/08/09 02:49:55;;;;;;;4.10;1.12;;;;;;;19.50;100.00;99800.75;4449014;32;20744;-70
2022/08/09 02:52:27;;;;;;;3.72;1.48;;;;;;;19.27;100.00;99768.78;4448459;32;20095;-70
2022/08/09 02:54:55;;;;;;;3.40;1.50;;;;;;;19.51;100.00;99799.62;4447012;32;20034;-73
2022/08/09 02:57:22;;;;;;;6.32;1.75;;;;;;;19.43;100.00;99794.81;4450005;32;20045;-70
2022/08/09 02:59:50;;;;;;;4.72;1.42;;;;;;;19.37;100.00;99801.41;4449871;32;20049;-70
2022/08/09 03:02:19;;;;;;;3.22;1.60;;;;;;;19.22;100.00;99775.91;4430814;32;20442;-70
2022/08/09 03:04:46;;;;;;;1.37;1.20;;;;;;;19.10;100.00;99770.06;4429857;32;20015;-73
2022/08/09 03:07:15;;;;;;;9.32;1.80;;;;;;;19.16;100.00;99777.09;4431580;32;20068;-70
2022/08/09 03:09:44;;;;;;;1.90;1.50;;;;;;;19.27;100.00;99769.59;4432188;32;20033;-70
2022/08/09 03:12:11;;;;;;;3.62;1.67;;;;;;;19.47;100.00;99806.78;4431223;32;20044;-70
2022/08/09 03:14:40;;;;;;;3.28;1.48;;;;;;;19.31;100.00;99792.50;4432256;32;20072;-70
2022/08/09 03:17:07;;;;;;;2.90;1.60;;;;;;;19.41;100.00;99816.13;4429847;32;20055;-70
2022/08/09 03:19:35;;;;;;;9.77;1.65;;;;;;;19.15;100.00;99761.81;4431161;32;20023;-70
2022/08/09 03:22:02;;;;;;;4.87;1.60;;;;;;;19.21;100.00;99790.69;4431940;32;20046;-70
2022/08/09 03:24:29;;;;;;;1.98;1.30;;;;;;;19.42;100.00;99801.41;4432017;32;20073;-70
2022/08/09 03:26:56;;;;;;;2.28;1.55;;;;;;;19.42;100.00;99799.47;4428244;32;20044;-70
2022/08/09 03:29:23;;;;;;;5.18;1.62;;;;;;;19.21;100.00;99765.28;4432103;32;20395;-70
2022/08/09 03:31:51;;;;;;;14.50;2.03;;;;;;;19.47;100.00;99811.44;4431802;32;20345;-70
2022/08/09 03:34:17;;;;;;;3.95;1.77;;;;;;;19.19;100.00;99768.31;4446664;32;20105;-70
2022/08/09 03:36:44;;;;;;;6.95;1.65;;;;;;;18.83;100.00;99732.34;4447428;32;20452;-73
2022/08/09 03:39:10;;;;;;;4.87;1.62;;;;;;;19.23;100.00;99806.78;4449580;32;20046;-70
2022/08/09 03:41:36;;;;;;;6.30;1.50;;;;;;;19.26;100.00;99810.81;4449249;32;20030;-70
2022/08/09 03:44:03;;;;;;;3.55;1.60;;;;;;;18.99;100.00;99771.25;4449203;32;20072;-70
2022/08/09 03:46:29;;;;;;;4.22;1.80;;;;;;;19.32;100.00;99804.22;4429001;32;20074;-72
2022/08/09 03:48:58;;;;;;;4.35;1.90;;;;;;;19.23;100.00;99793.94;4431144;32;20042;-70
2022/08/09 03:51:26;;;;;;;9.07;2.47;;;;;;;19.23;100.00;99802.13;4431686;32;20454;-70
2022/08/09 03:53:53;;;;;;;2.92;1.98;;;;;;;19.11;100.00;99817.25;4431465;32;20034;-70
2022/08/09 03:56:19;;;;;;;4.93;2.10;;;;;;;19.03;100.00;99813.22;4429200;32;20433;-74
2022/08/09 03:58:46;;;;;;;2.70;1.55;;;;;;;19.04;100.00;99815.66;4428759;32;20449;-71
2022/08/09 04:01:13;;;;;;;11.45;2.28;;;;;;;19.02;100.00;99801.50;4431498;32;20272;-71
2022/08/09 04:03:40;;;;;;;13.95;3.65;;;;;;;18.99;100.00;99769.31;4430450;32;20151;-70
2022/08/09 04:06:06;;;;;;;4.20;1.85;;;;;;;19.00;100.00;99770.97;4431578;32;20030;-70
2022/08/09 04:08:32;;;;;;;3.92;2.05;;;;;;;19.24;100.00;99802.91;4430972;32;20026;-72
2022/08/09 04:10:59;;;;;;;9.82;1.85;;;;;;;19.00;100.00;99781.06;4414711;32;20073;-71
2022/08/09 04:13:26;;;;;;;2.87;1.40;;;;;;;18.71;100.00;99746.34;4415419;32;20063;-70
2022/08/09 04:15:52;;;;;;;3.65;3.33;;;;;;;19.04;100.00;99782.13;4415337;32;20048;-70
2022/08/09 04:18:19;;;;;;;4.20;1.83;;;;;;;18.91;100.00;99755.47;4414277;32;20115;-70
2022/08/09 04:20:46;;;;;;;2.97;1.75;;;;;;;19.16;100.00;99785.28;4413562;32;20030;-71
2022/08/09 04:23:13;;;;;;;5.60;1.80;;;;;;;19.45;100.00;99814.47;4416219;32;20383;-71
2022/08/09 04:25:39;;;;;;;6.40;1.98;;;;;;;19.38;100.00;99814.78;4415984;32;20107;-71
2022/08/09 04:28:05;;;;;;;3.83;2.67;;;;;;;19.55;100.00;99822.53;4415928;32;20081;-72
2022/08/09 04:30:32;;;;;;;8.52;1.98;;;;;;;19.26;100.00;99786.25;4414471;32;20026;-74
2022/08/09 04:33:01;;;;;;;6.15;1.92;;;;;;;19.59;100.00;99831.78;4414859;32;20180;-71
2022/08/09 04:35:28;;;;;;;5.03;2.28;;;;;;;19.48;100.00;99830.28;4415723;32;20068;-71
2022/08/09 04:37:54;;;;;;;3.80;1.65;;;;;;;19.37;100.00;99812.34;4415767;32;20026;-71
2022/08/09 04:40:20;;;;;;;4.60;2.97;;;;;;;19.30;100.00;99806.44;4415746;32;20038;-71
2022/08/09 04:42:47;;;;;;;6.30;2.03;;;;;;;19.33;100.00;99822.22;4413855;32;20146;-74
2022/08/09 04:45:13;;;;;;;11.65;2.47;;;;;;;18.97;100.00;99787.09;4415956;32;20207;-71
2022/08/09 04:47:39;;;;;;;11.95;2.55;;;;;;;18.76;100.00;99781.75;4423526;32;20063;-71
2022/08/09 04:50:06;;;;;;;6.28;2.03;;;;;;;18.60;100.00;99789.25;4451983;32;20055;-71
2022/08/09 04:52:32;;;;;;;5.93;3.17;;;;;;;18.53;100.00;99791.50;4450069;32;20370;-74
2022/08/09 04:55:00;;;;;;;4.95;1.95;;;;;;;18.37;100.00;99758.09;4450638;32;20067;-71
2022/08/09 04:57:27;;;;;;;3.45;2.00;;;;;;;18.78;100.00;99839.59;4451849;32;20063;-71
2022/08/09 04:59:54;;;;;;;4.82;1.98;;;;;;;18.52;100.00;99798.88;4451682;32;20055;-70
2022/08/09 05:02:24;;;;;;;6.70;2.30;;;;;;;18.32;100.00;99766.31;4451761;32;20353;-71
2022/08/09 05:04:50;;;;;;;3.10;1.80;;;;;;;18.60;100.00;99802.09;4450262;32;20059;-71
2022/08/09 05:07:17;;;;;;;7.43;1.80;;;;;;;18.65;100.00;99851.13;4451509;32;20029;-71
2022/08/09 05:09:43;;;;;;;7.43;1.92;;;;;;;18.40;100.00;99839.31;4450359;32;20079;-71
2022/08/09 05:12:09;;;;;;;3.60;1.77;;;;;;;18.47;100.00;99817.19;4451210;32;20069;-70
2022/08/09 05:14:36;;;;;;;3.00;1.87;;;;;;;18.85;100.00;99833.84;4451559;32;20034;-71
2022/08/09 05:17:03;;;;;;;4.62;1.62;;;;;;;18.97;100.00;99839.75;4449132;32;20042;-71
2022/08/09 05:19:29;;;;;;;2.50;1.52;;;;;;;18.98;100.00;99844.09;4451608;32;20854;-71
2022/08/09 05:21:55;;;;;;;4.45;2.62;;;;;;;18.83;100.00;99830.56;4434127;32;20041;-71
2022/08/09 05:24:23;;;;;;;3.83;2.00;;;;;;;19.04;100.00;99842.16;4433974;32;20042;-71
2022/08/09 05:26:50;;;;;;;7.55;1.90;;;;;;;19.09;100.00;99855.75;4431779;32;20088;-71
2022/08/09 05:29:18;;;;;;;8.68;1.92;;;;;;;18.83;100.00;99850.47;4432631;32;20088;-71
2022/08/09 05:31:46;;;;;;;16.27;2.17;;;;;;;19.13;100.00;99854.09;4432617;32;20417;-71
2022/08/09 05:34:14;;;;;;;3.10;1.87;;;;;;;19.13;100.00;99861.44;4433843;32;20095;-71
2022/08/09 05:36:41;;;;;;;7.37;1.65;;;;;;;19.20;100.00;99849.09;4432102;32;20407;-73
2022/08/09 05:39:08;;;;;;;4.85;1.95;;;;;;;19.13;100.00;99845.91;4432478;32;20084;-71
2022/08/09 05:41:34;;;;;;;4.75;2.12;;;;;;;19.41;100.00;99857.09;4401291;32;20054;-70
2022/08/09 05:44:00;;;;;;;8.00;1.80;;;;;;;19.28;100.00;99809.44;4403280;32;20097;-70
2022/08/09 05:46:27;;;;;;;9.85;1.98;;;;;;;19.64;100.00;99854.69;4372785;32;20186;-70
2022/08/09 05:48:54;;;;;;;5.07;1.92;;;;;;;19.12;100.00;99784.22;4371610;32;20093;-70
2022/08/09 05:51:20;;;;;;;4.65;2.67;;;;;;;19.49;100.00;99863.84;4372104;32;20805;-71
2022/08/09 05:53:48;;;;;;;17.15;2.08;;;;;;;19.56;100.00;99854.22;4372734;32;20182;-71
2022/08/09 05:56:14;;;;;;;3.08;1.50;;;;;;;18.90;100.00;99748.41;4372578;32;20369;-71
2022/08/09 05:58:40;;;;;;;14.70;4.90;;;;;;;19.68;100.00;99867.47;4372168;32;20053;-71
2022/08/09 06:01:08;;;;;;;5.57;1.90;;;;;;;19.55;100.00;99825.28;4369831;32;20069;-73
2022/08/09 06:03:35;;;;;;;7.47;2.08;;;;;;;19.94;100.00;99870.78;4372371;32;20065;-70
2022/08/09 06:06:01;;;;;;;2.45;1.60;;;;;;;19.80;100.00;99837.06;4372655;32;20328;-71
2022/08/09 06:08:28;;;;;;;4.35;1.90;;;;;;;20.09;100.00;99874.44;4372456;32;20024;-71
2022/08/09 06:10:55;;;;;;;6.20;1.83;;;;;;;19.57;100.00;99801.19;4371729;32;20061;-73
2022/08/09 06:13:22;;;;;;;5.53;1.58;;;;;;;19.56;100.00;99777.75;4395422;32;20440;-71
2022/08/09 06:15:49;;;;;;;4.80;2.20;;;;;;;19.95;100.00;99838.78;4402856;32;20363;-71
2022/08/09 06:18:16;;;;;;;5.93;2.50;;;;;;;20.21;100.00;99872.06;4439643;32;20034;-70
2022/08/09 06:20:42;;;;;;;7.15;2.17;;;;;;;20.14;100.00;99858.75;4449634;32;20055;-71
2022/08/09 06:23:08;;;;;;;5.20;2.05;;;;;;;20.17;100.00;99868.31;4449853;32;20046;-70
2022/08/09 06:25:35;;;;;;;12.20;2.30;;;;;;;19.95;100.00;99845.03;4450731;32;20041;-70
2022/08/09 06:28:01;;;;;;;3.67;2.45;;;;;;;20.24;100.00;99879.69;4417563;32;20317;-70
2022/08/09 06:30:28;;;;;;;7.40;1.65;;;;;;;19.98;100.00;99843.66;4417767;32;20046;-70
2022/08/09 06:32:54;;;;;;;4.00;2.00;;;;;;;20.37;100.00;99882.81;4417131;32;20375;-73
2022/08/09 06:35:20;;;;;;;3.05;1.85;;;;;;;20.24;100.00;99874.22;4416127;32;20411;-70
2022/08/09 06:37:47;;;;;;;2.53;1.62;;;;;;;20.23;100.00;99878.06;4416078;32;20072;-70
2022/08/09 06:40:13;;;;;;;10.73;2.25;;;;;;;20.06;100.00;99855.87;4417220;32;20056;-70
2022/08/09 06:42:39;;;;;;;4.82;2.17;;;;;;;20.46;100.00;99887.31;4417394;32;20053;-70
2022/08/09 06:45:07;;;;;;;5.75;1.98;;;;;;;20.25;100.00;99875.84;4415846;32;20053;-72
2022/08/09 06:47:33;;;;;;;9.80;1.90;;;;;;;20.05;100.00;99855.03;4416604;32;20196;-70
2022/08/09 06:49:59;;;;;;;6.25;1.87;;;;;;;20.13;100.00;99889.13;4417230;32;20027;-70
2022/08/09 06:52:26;;;;;;;5.07;1.98;;;;;;;19.91;100.00;99854.13;4415601;32;20065;-70
2022/08/09 06:54:52;;;;;;;7.90;2.03;;;;;;;20.21;100.00;99904.06;4431020;32;20034;-70
2022/08/09 06:57:18;;;;;;;9.95;2.00;;;;;;;20.19;100.00;99887.16;4430356;32;20025;-70
2022/08/09 06:59:45;;;;;;;6.45;1.80;;;;;;;20.05;100.00;99859.69;4430055;32;20879;-70
2022/08/09 07:02:11;;;;;;;4.97;2.20;;;;;;;20.16;100.00;99891.28;4447843;32;20055;-70
2022/08/09 07:04:38;;;;;;;8.93;2.25;;;;;;;20.18;100.00;99902.72;4447921;32;20013;-70
2022/08/09 07:07:05;;;;;;;3.53;1.80;;;;;;;20.35;100.00;99902.25;4446573;32;20171;-71
2022/08/09 07:09:31;;;;;;;8.82;2.08;;;;;;;20.49;100.00;99905.06;4400308;32;20043;-70
2022/08/09 07:11:58;;;;;;;5.85;1.83;;;;;;;20.26;100.00;99872.00;4401394;32;20429;-70
2022/08/09 07:14:24;;;;;;;10.65;2.20;;;;;;;20.30;100.00;99869.50;4401462;32;20042;-70
2022/08/09 07:16:51;;;;;;;7.85;2.28;;;;;;;20.10;100.00;99873.28;4401499;32;20438;-70
2022/08/09 07:19:17;;;;;;;9.15;2.30;;;;;;;20.43;100.00;99907.06;4400488;32;20045;-71
2022/08/09 07:21:44;;;;;;;9.23;2.20;;;;;;;20.33;100.00;99872.44;4401359;32;20043;-70
2022/08/09 07:24:17;;;;;;;17.20;2.20;;;;;;;20.66;100.00;99919.09;4386441;32;20360;-70
2022/08/09 07:26:43;;;;;;;15.57;2.22;;;;;;;20.44;100.00;99884.06;4385898;32;20100;-70
2022/08/09 07:29:16;;;;;;;8.15;2.30;;;;;;;20.66;100.00;99918.25;4383743;32;20043;-70
2022/08/09 07:31:43;;;;;;;4.20;2.05;;;;;;;20.79;100.00;99911.22;4385942;32;20023;-70
2022/08/09 07:34:09;;;;;;;12.77;2.90;;;;;;;20.95;100.00;99915.38;4386112;32;20053;-70
2022/08/09 07:36:35;;;;;;;6.32;2.67;;;;;;;21.20;100.00;99927.03;4385760;32;20058;-70
2022/08/09 07:39:03;;;;;;;5.68;2.17;;;;;;;20.42;100.00;99836.22;4384701;32;20068;-72
2022/08/09 07:41:30;;;;;;;3.45;2.37;;;;;;;20.59;100.00;99895.91;4411256;32;20045;-70
2022/08/09 07:43:56;;;;;;;15.88;2.40;;;;;;;20.67;100.00;99896.06;4416438;32;20522;-71
2022/08/09 07:46:23;;;;;;;7.68;3.25;;;;;;;21.10;100.00;99927.22;4416035;32;20055;-70
2022/08/09 07:48:49;;;;;;;7.45;1.92;;;;;;;21.23;100.00;99937.38;4416447;32;20026;-71
2022/08/09 07:51:16;;;;;;;3.70;1.85;;;;;;;21.20;100.00;99910.59;4415980;32;20078;-71
2022/08/09 07:53:42;;;;;;;7.65;2.17;;;;;;;21.42;100.00;99932.69;4414005;32;20056;-71
2022/08/09 07:56:09;;;;;;;9.02;1.70;;;;;;;21.55;100.00;99919.34;4444712;32;20045;-71
2022/08/09 07:58:35;;;;;;;2.28;1.92;;;;;;;21.80;100.00;99928.25;4449095;32;20068;-71
2022/08/09 08:01:02;;;;;;;3.40;2.22;;;;;;;21.99;100.00;99931.69;4449206;32;20041;-70
2022/08/09 08:03:28;;;;;;;7.32;2.17;;;;;;;21.76;100.00;99938.97;4447674;32;20440;-72
2022/08/09 08:05:55;;;;;;;4.65;1.87;;;;;;;21.58;100.00;99932.44;4448505;32;20050;-70
2022/08/09 08:08:23;;;;;;;5.50;1.98;;;;;;;21.48;100.00;99902.47;4448773;32;20038;-71
2022/08/09 08:10:50;;;;;;;5.50;1.98;;;;;;;21.68;100.00;99937.72;4447804;32;20042;-71
2022/08/09 08:13:16;;;;;;;3.83;1.90;;;;;;;21.66;100.00;99939.97;4448100;32;20389;-72
2022/08/09 08:15:42;;;;;;;3.90;1.58;;;;;;;21.50;100.00;99908.50;4448269;32;20029;-70
2022/08/09 08:18:09;;;;;;;12.20;1.58;;;;;;;21.43;100.00;99895.16;4430930;32;20075;-71
2022/08/09 08:20:35;;;;;;;3.30;1.70;;;;;;;21.57;100.00;99948.09;4431233;32;20033;-71
2022/08/09 08:23:04;;;;;;;2.67;1.33;;;;;;;21.56;100.00;99912.78;4431265;32;20047;-71
2022/08/09 08:25:30;;;;;;;2.83;1.40;;;;;;;22.05;100.00;99951.59;4429037;32;20038;-71
2022/08/09 08:27:57;;;;;;;4.00;1.83;;;;;;;22.10;100.00;99941.34;4418167;32;20144;-70
2022/08/09 08:30:23;;;;;;;17.10;1.90;;;;;;;21.84;100.00;99931.97;4430988;32;20411;-71
2022/08/09 08:32:51;;;;;;;14.98;1.85;;;;;;;22.02;100.00;99944.81;4429730;32;20034;-71
2022/08/09 08:35:18;;;;;;;11.07;1.87;;;;;;;21.66;100.00;99896.13;4428979;32;20430;-74
2022/08/09 08:37:44;;;;;;;6.97;1.75;;;;;;;21.83;100.00;99952.31;4370280;32;20043;-70
2022/08/09 08:40:11;;;;;;;6.18;1.52;;;;;;;22.07;100.00;99941.94;4369121;32;20035;-71
2022/08/09 08:42:38;;;;;;;5.00;1.70;;;;;;;22.27;100.00;99939.91;4368748;32;20035;-71
2022/08/09 08:45:06;;;;;;;6.90;2.00;;;;;;;22.12;100.00;99889.75;4370247;32;20023;-71
2022/08/09 08:47:32;;;;;;;4.47;1.60;;;;;;;22.46;100.00;99929.66;4368002;32;20040;-72
2022/08/09 08:49:59;;;;;;;2.60;2.00;;;;;;;22.34;100.00;99937.63;4370323;32;20117;-70
2022/08/09 08:52:27;;;;;;;6.85;2.05;;;;;;;22.54;100.00;99943.78;4369654;32;20384;-71
2022/08/09 08:54:55;;;;;;;11.02;1.75;;;;;;;22.33;100.00;99927.75;4372624;32;20404;-70
2022/08/09 08:57:23;;;;;;;6.22;1.40;;;;;;;22.41;100.00;99931.72;4384211;32;20459;-71
2022/08/09 08:59:50;;;;;;;4.82;1.48;;;;;;;22.63;100.00;99961.16;4384910;32;20039;-70
2022/08/09 09:02:27;;;;;;;5.80;1.42;;;;;;;22.53;100.00;99953.97;4372624;32;20035;-70
2022/08/09 09:04:57;;;;;;;5.90;1.70;;;;;;;22.76;100.00;99952.06;4385207;32;20035;-70
2022/08/09 09:07:25;;;;;;;11.85;1.95;;;;;;;22.73;100.00;99966.41;4384022;32;20061;-73
2022/08/09 09:09:53;;;;;;;14.05;2.25;;;;;;;22.41;100.00;99918.00;4427559;32;20379;-70
2022/08/09 09:12:26;;;;;;;18.90;1.98;;;;;;;22.39;100.00;99956.72;4447426;32;20052;-70
2022/08/09 09:14:55;;;;;;;8.25;2.40;;;;;;;22.52;100.00;99948.78;4448370;32;20435;-71
2022/08/09 09:17:22;;;;;;;12.23;2.28;;;;;;;22.64;100.00;99913.34;4429243;32;20030;-72
2022/08/09 09:19:49;;;;;;;8.50;1.95;;;;;;;23.05;100.00;99945.38;4430892;32;20034;-71
2022/08/09 09:22:18;;;;;;;5.20;2.10;;;;;;;23.01;100.00;99917.72;4430955;32;20378;-70
2022/08/09 09:24:47;;;;;;;2.75;2.05;;;;;;;22.93;100.00;99958.81;4430620;32;20038;-71
2022/08/09 09:27:21;;;;;;;8.63;1.85;;;;;;;22.70;100.00;99964.28;4429701;32;20378;-73
2022/08/09 09:29:48;;;;;;;5.00;2.00;;;;;;;22.74;100.00;99962.56;4430483;32;20062;-71
2022/08/09 09:32:23;;;;;;;4.75;2.15;;;;;;;22.55;100.00;99926.22;4431598;32;20026;-70
2022/08/09 09:35:08;;;;;;;3.10;2.03;;;;;;;22.85;100.00;99963.94;4432534;32;20030;-70
2022/08/09 09:37:35;;;;;;;2.97;1.58;;;;;;;22.76;100.00;99938.34;4433297;32;20196;-71
2022/08/09 09:40:03;;;;;;;5.50;1.58;;;;;;;22.76;100.00;99979.53;4432699;32;20060;-70
2022/08/09 09:42:30;;;;;;;7.43;1.75;;;;;;;22.66;100.00;99979.75;4432960;32;20029;-70
2022/08/09 09:45:00;;;;;;;2.87;2.10;;;;;;;22.44;100.00;99948.37;4430386;32;20034;-72
2022/08/09 09:47:28;;;;;;;3.60;1.60;;;;;;;22.41;100.00;99981.09;4434632;32;20072;-70
2022/08/09 09:49:56;;;;;;;6.75;2.65;;;;;;;22.26;100.00;99946.53;4451099;32;20055;-71
2022/08/09 09:52:23;;;;;;;10.85;2.47;;;;;;;22.62;100.00;99976.00;4450603;32;20038;-72
2022/08/09 09:54:51;;;;;;;4.62;3.12;;;;;;;22.56;100.00;99955.25;4448259;32;20038;-74
2022/08/09 09:57:20;;;;;;;7.80;3.20;;;;;;;22.55;100.00;99946.22;4450491;32;20058;-71
2022/08/09 09:59:49;;;;;;;2.75;2.30;;;;;;;22.53;100.00;99986.06;4450815;32;20038;-72
2022/08/09 10:02:17;;;;;;;10.25;2.12;;;;;;;22.33;100.00;99979.88;4450686;32;20055;-72
2022/08/09 10:05:00;;;;;;;9.88;2.15;;;;;;;21.95;100.00;99949.84;4450613;32;20045;-72
2022/08/09 10:07:33;;;;;;;3.65;1.95;;;;;;;22.35;100.00;99944.72;4450624;32;20037;-72
2022/08/09 10:10:00;;;;;;;7.28;1.70;;;;;;;22.48;100.00;99979.56;4450677;32;20068;-72
2022/08/09 10:12:32;;;;;;;1.83;1.50;;;;;;;22.71;100.00;99976.88;4450624;32;20045;-71
2022/08/09 10:15:07;;;;;;;1.83;1.73;;;;;;;22.40;100.00;99930.91;4432924;32;20185;-71
2022/08/09 10:17:34;;;;;;;2.62;1.85;;;;;;;22.68;100.00;99977.50;4433031;32;20045;-72
2022/08/09 10:20:25;;;;;;;2.60;1.60;;;;;;;22.58;100.00;99977.75;4433035;32;20026;-71
2022/08/09 10:22:54;;;;;;;2.33;1.92;;;;;;;22.59;100.00;99946.41;4385918;32;20201;-71
2022/08/09 10:25:27;;;;;;;9.35;1.58;;;;;;;22.91;100.00;99977.56;4387169;32;20027;-71
2022/08/09 10:27:54;;;;;;;4.78;1.60;;;;;;;22.80;100.00;99977.78;4387236;32;20047;-71
2022/08/09 10:30:20;;;;;;;4.72;2.00;;;;;;;22.88;100.00;99973.50;4386354;32;20035;-71
2022/08/09 10:32:47;;;;;;;4.10;2.10;;;;;;;23.04;100.00;99939.06;4385920;32;20035;-71
2022/08/09 10:35:14;;;;;;;5.28;1.85;;;;;;;23.50;100.00;99977.56;4386982;32;20093;-71
2022/08/09 10:37:42;;;;;;;4.87;1.90;;;;;;;23.61;100.00;99940.44;4371878;32;20061;-70
2022/08/09 10:40:10;;;;;;;4.10;2.03;;;;;;;24.05;100.00;99973.69;4370115;32;20032;-72
2022/08/09 10:42:37;;;;;;;3.47;1.80;;;;;;;23.89;100.00;99974.09;4370671;32;20040;-70
2022/08/09 10:45:07;;;;;;;10.32;1.67;;;;;;;24.01;100.00;99964.44;4372267;32;20384;-71
2022/08/09 10:47:44;;;;;;;3.97;2.00;;;;;;;23.89;100.00;99924.59;4386833;32;20041;-70
2022/08/09 10:50:26;;;;;;;5.62;1.90;;;;;;;23.64;100.00;99974.75;4383151;32;20057;-73
2022/08/09 10:53:11;;;;;;;4.93;1.50;;;;;;;24.20;100.00;99967.75;4356084;32;20494;-71
2022/08/09 10:58:33;;;;;;;3.90;2.03;;;;;;;24.53;100.00;99952.81;4370871;32;20874;-71
2022/08/09 11:01:00;;;;;;;4.07;1.83;;;;;;;24.37;100.00;99966.22;4356689;32;20040;-70
2022/08/09 11:03:26;;;;;;;2.35;1.90;;;;;;;24.57;100.00;99954.63;4335273;33;20098;-71
2022/08/09 11:06:14;;;;;;;3.65;1.55;;;;;;;24.66;100.00;99957.38;4341925;33;20070;-71
2022/08/09 11:08:43;;;;;;;6.62;1.80;;;;;;;25.22;100.00;99957.56;4348509;32;20093;-70
2022/08/09 11:11:09;;;;;;;4.53;1.50;;;;;;;25.15;90.85;99957.25;4354622;32;20044;-71
2022/08/09 11:13:36;;;;;;;4.87;1.73;;;;;;;25.56;99.02;99933.84;4356154;32;20941;-72
2022/08/09 11:16:36;;;;;;;10.70;3.25;;;;;;;26.30;96.14;99931.00;4356487;32;20444;-70
2022/08/09 11:19:06;;;;;;;8.82;2.60;;;;;;;26.20;77.64;99951.50;4296634;33;20106;-71
2022/08/09 11:21:52;;;;;;;5.12;1.30;;;;;;;26.46;80.08;99965.97;4297450;33;20367;-71
2022/08/09 11:24:20;;;;;;;3.72;1.52;;;;;;;27.06;66.29;99963.16;4295554;33;20033;-72
2022/08/09 11:26:49;;;;;;;3.58;1.52;;;;;;;27.22;60.60;99963.34;4297758;33;20091;-71
2022/08/09 11:29:53;;;;;;;3.83;1.37;;;;;;;27.71;64.55;99962.72;4297452;33;20051;-71
2022/08/09 11:32:38;;;;;;;6.50;1.55;;;;;;;27.52;63.11;99955.75;4314757;33;20036;-71
2022/08/09 11:35:13;;;;;;;10.15;1.52;;;;;;;27.07;63.91;99955.66;4334713;33;20379;-73
2022/08/09 11:37:42;;;;;;;1.80;1.70;;;;;;;27.42;67.09;99864.13;4341158;33;20052;-71